Latest Weather Observations for Wilcannia Airport

IDN60801

Issued at 8:03 pm EDT Monday 5 December 2022 (issued every 10 minutes, with the page automatically refreshed every 10 minutes)

About weather observations | Map of weather stations | Latest weather observations for NSW | Other Formats
Station Details ID: 046012 Name: WILCANNIA AERODROME AWS Lat: -31.52 Lon: 143.38 Height: 94.3 m
Data from the previous 72 hours. | See also: Recent months at Wilcannia Airport
Date/Time
EDT
Temp
°C
App
Temp
°C
Dew
Point
°C
Rel
Hum
%
Delta-T
°C
Wind Press
QNH
hPa
Press
MSL
hPa
Rain since
9am
mm
Dir  Spd
km/h
Gust
km/h
Spd
kts
Gust
kts
05/08:00pm 25.0 19.6 6.2 30 9.7 SSW 24 33 13 18 1009.3 1008.8 0.0
05/07:30pm 25.7 20.6 7.8 32 9.6 SW 24 37 13 20 1009.2 1008.7 0.0
05/07:00pm 26.2 20.1 8.2 32 9.7 SW 30 41 16 22 1009.0 1008.5 0.0
05/06:30pm 27.3 21.8 7.7 29 10.6 SW 26 37 14 20 1008.9 1008.4 0.0
05/06:00pm 28.5 23.0 9.2 30 10.7 SSW 28 39 15 21 1008.7 1008.2 0.0
05/05:30pm 27.4 21.3 8.3 30 10.4 SW 30 41 16 22 1008.7 1008.2 0.0
05/05:00pm 27.7 21.7 8.6 30 10.5 SSW 30 41 16 22 1008.5 1008.0 0.0
05/04:30pm 30.6 25.6 9.5 27 11.9 SSW 26 41 14 22 1008.1 1007.6 0.0
05/04:00pm 31.8 28.0 9.9 26 12.5 SW 20 30 11 16 1007.9 1007.4 0.0
05/03:30pm 31.4 27.8 8.4 24 12.8 SSW 17 26 9 14 1007.9 1007.4 0.0
05/03:00pm 30.7 26.5 8.4 25 12.4 SW 20 32 11 17 1008.6 1008.1 0.0
05/02:30pm 30.5 26.7 11.0 30 11.3 SW 22 37 12 20 1008.9 1008.4 0.0
05/02:00pm 30.4 26.5 10.9 30 11.3 SW 22 39 12 21 1009.4 1008.9 0.0
05/01:30pm 30.4 27.2 11.9 32 10.8 SW 20 32 11 17 1009.6 1009.1 0.0
05/01:00pm 29.2 27.0 9.3 29 11.1 SW 11 17 6 9 1009.3 1008.8 0.0
05/12:30pm 27.8 26.0 10.9 35 9.6 SSE 11 19 6 10 1009.6 1009.1 0.0
05/12:00pm 27.8 25.0 10.1 33 10.0 SW 15 22 8 12 1010.3 1009.8 0.0
05/11:30am 27.1 23.3 9.9 34 9.6 SW 20 30 11 16 1010.5 1010.0 0.0
05/11:00am 26.5 23.3 11.4 39 8.6 SW 19 28 10 15 1010.6 1010.1 0.0
05/10:30am 24.4 21.0 12.4 47 6.9 WSW 22 28 12 15 1010.8 1010.3 0.0
05/10:00am 24.0 19.3 12.0 47 6.8 WSW 28 39 15 21 1011.1 1010.6 0.0
05/09:30am 24.9 20.7 11.1 42 7.8 WSW 24 32 13 17 1010.9 1010.4 0.0
05/09:00am 24.9 21.0 10.8 41 7.9 WSW 22 30 12 16 1010.9 1010.4 0.0
05/08:30am 24.7 21.3 10.6 41 7.9 WSW 19 26 10 14 1010.6 1010.1 0.0
05/08:00am 24.2 21.6 9.4 39 8.1 W 13 17 7 9 1010.4 1009.9 0.0
05/07:30am 22.8 20.6 9.2 42 7.3 WNW 11 15 6 8 1010.4 1009.9 0.0
05/07:00am 21.1 17.8 9.4 47 6.3 WSW 17 24 9 13 1010.3 1009.8 0.0
05/06:30am 19.3 16.7 9.5 53 5.2 NW 13 15 7 8 1009.3 1008.8 0.0
05/06:00am 19.9 16.6 9.5 51 5.6 NNW 17 19 9 10 1008.8 1008.3 0.0
05/05:30am 19.8 16.8 9.4 51 5.5 N 15 17 8 9 1008.5 1008.0 0.0
05/05:00am 19.9 17.0 9.5 51 5.6 NNW 15 17 8 9 1008.5 1008.0 0.0
05/04:30am 19.8 16.9 9.7 52 5.4 NW 15 17 8 9 1008.5 1008.0 0.0
05/04:00am 21.1 18.1 9.4 47 6.3 NNW 15 17 8 9 1008.4 1007.9 0.0
05/03:30am 21.5 18.5 9.4 46 6.5 NNW 15 17 8 9 1008.4 1007.9 0.0
05/03:00am 22.4 19.1 9.6 44 7.0 NNW 17 19 9 10 1008.3 1007.8 0.0
05/02:30am 22.2 18.9 9.7 45 6.8 N 17 19 9 10 1008.5 1008.0 0.0
05/02:00am 22.2 18.9 9.4 44 6.9 N 17 17 9 9 1008.8 1008.3 0.0
05/01:30am 22.4 19.0 9.2 43 7.1 N 17 17 9 9 1009.1 1008.6 0.0
05/01:00am 22.9 19.5 9.0 41 7.5 N 17 20 9 11 1009.4 1008.9 0.0
05/12:30am 23.2 19.9 9.6 42 7.4 N 17 19 9 10 1009.7 1009.2 0.0
05/12:00am 22.7 20.0 10.5 46 6.7 NNW 15 17 8 9 1010.0 1009.5 0.0
 
Date/Time
EDT
Temp
°C
App
Temp
°C
Dew
Point
°C
Rel
Hum
%
Delta-T
°C
Wind Press
QNH
hPa
Press
MSL
hPa
Rain since
9am
mm
Dir  Spd
km/h
Gust
km/h
Spd
kts
Gust
kts
04/11:30pm 23.3 20.1 10.0 43 7.3 N 17 17 9 9 1010.2 1009.7 0.0
04/11:00pm 23.5 21.1 9.9 42 7.5 N 13 13 7 7 1010.4 1009.9 0.0
04/10:30pm 24.4 21.7 8.8 37 8.4 NNE 13 15 7 8 1010.4 1009.9 0.0
04/10:00pm 24.7 21.4 9.4 38 8.4 NNE 17 17 9 9 1010.4 1009.9 0.0
04/09:30pm 25.5 23.0 9.7 37 8.7 N 13 13 7 7 1010.4 1009.9 0.0
04/09:00pm 25.7 23.7 10.3 38 8.6 NNE 11 13 6 7 1010.2 1009.7 0.0
04/08:30pm 26.8 25.1 11.3 38 8.9 NE 11 13 6 7 1010.0 1009.5 0.0
04/08:00pm 29.0 26.9 9.7 30 10.9 NE 11 13 6 7 1010.0 1009.5 0.0
04/07:30pm 29.5 27.6 9.1 28 11.4 NE 9 13 5 7 1009.9 1009.4 0.0
04/07:00pm 31.4 28.9 6.5 21 13.5 ENE 9 13 5 7 1009.8 1009.3 0.0
04/06:30pm 32.0 29.2 7.0 21 13.6 NNE 11 20 6 11 1009.5 1009.0 0.0
04/06:00pm 32.2 29.4 7.1 21 13.8 ENE 11 17 6 9 1009.6 1009.1 0.0
04/05:30pm 32.3 29.9 7.2 21 13.8 NNE 9 15 5 8 1009.9 1009.4 0.0
04/05:00pm 33.0 31.2 7.1 20 14.2 SW 6 13 3 7 1010.3 1009.8 0.0
04/04:30pm 32.5 29.1 5.9 19 14.3 E 13 20 7 11 1010.3 1009.8 0.0
04/04:00pm 32.4 29.9 6.6 20 14.0 NNW 9 19 5 10 1010.5 1010.0 0.0
04/03:30pm 32.3 28.8 7.2 21 13.8 ENE 15 24 8 13 1010.9 1010.4 0.0
04/03:00pm 31.7 28.2 5.3 19 14.0 SE 13 22 7 12 1011.3 1010.8 0.0
04/02:30pm 31.7 29.6 6.7 21 13.6 SSW 7 11 4 6 1011.8 1011.3 0.0
04/02:00pm 31.7 28.1 6.7 21 13.6 E 15 22 8 12 1012.0 1011.5 0.0
04/01:30pm 31.7 28.2 7.4 22 13.3 SE 15 24 8 13 1012.4 1011.9 0.0
04/01:00pm 31.0 28.5 8.1 24 12.7 ESE 11 19 6 10 1012.9 1012.3 0.0
04/12:30pm 31.1 27.9 6.9 22 13.1 NE 13 22 7 12 1013.2 1012.6 0.0
04/12:00pm 30.9 27.6 8.0 24 12.6 ENE 15 24 8 13 1013.5 1012.9 0.0
04/11:30am 30.2 26.8 6.1 22 12.8 E 13 22 7 12 1013.7 1013.1 0.0
04/11:00am 30.4 27.9 8.2 25 12.3 NE 11 19 6 10 1013.8 1013.2 0.0
04/10:30am 29.6 27.2 8.6 27 11.6 NNE 11 17 6 9 1014.0 1013.4 0.0
04/10:00am 29.3 26.6 8.9 28 11.3 NE 13 20 7 11 1014.1 1013.5 0.0
04/09:30am 28.6 26.1 8.3 28 11.1 N 11 17 6 9 1014.2 1013.6 0.0
04/09:00am 27.6 25.2 8.5 30 10.4 N 11 15 6 8 1014.2 1013.6 0.0
04/08:30am 26.7 24.8 10.4 36 9.2 N 11 15 6 8 1014.0 1013.4 0.0
04/08:00am 24.6 22.5 11.2 43 7.6 N 13 17 7 9 1013.7 1013.1 0.0
04/07:30am 22.3 21.4 12.5 53 5.6 N 9 13 5 7 1013.3 1012.7 0.0
04/07:00am 19.7 18.8 12.7 64 4.0 NNE 9 11 5 6 1013.1 1012.5 0.0
04/06:30am 17.6 16.1 11.9 69 3.1 NNE 11 13 6 7 1012.7 1012.2 0.0
04/06:00am 17.4 15.9 11.9 70 3.0 NNE 11 13 6 7 1012.4 1011.9 0.0
04/05:30am 18.4 16.5 11.9 66 3.6 NE 13 15 7 8 1012.4 1011.9 0.0
04/05:00am 18.3 16.2 12.3 68 3.3 NNE 15 15 8 8 1012.2 1011.7 0.0
04/04:30am 18.0 16.0 12.7 71 3.0 NE 15 15 8 8 1012.2 1011.7 0.0
04/04:00am 18.2 16.6 12.9 71 3.0 NNE 13 15 7 8 1012.3 1011.8 0.0
04/03:30am 18.2 17.0 12.9 71 3.0 NNE 11 13 6 7 1012.2 1011.7 0.0
04/03:00am 19.6 18.3 12.6 64 3.9 NNE 11 13 6 7 1012.2 1011.7 0.0
04/02:30am 19.5 17.1 12.8 65 3.8 NNE 17 19 9 10 1012.4 1011.9 0.0
04/02:00am 19.4 19.1 15.5 78 2.3 ENE 11 13 6 7 1012.6 1012.1 0.0
04/01:30am 18.8 18.9 14.5 76 2.5 E 7 9 4 5 1012.9 1012.3 0.0
04/01:00am 19.4 20.2 13.8 70 3.2 SE 2 6 1 3 1013.2 1012.6 0.0
04/12:30am 20.2 20.1 13.2 64 4.0 SSE 6 9 3 5 1013.4 1012.8 0.0
04/12:00am 20.1 22.5 16.9 82 1.9 CALM 0 0 0 0 1013.5 1012.9 0.0
 
Date/Time
EDT
Temp
°C
App
Temp
°C
Dew
Point
°C
Rel
Hum
%
Delta-T
°C
Wind Press
QNH
hPa
Press
MSL
hPa
Rain since
9am
mm
Dir  Spd
km/h
Gust
km/h
Spd
kts
Gust
kts
03/11:30pm 20.7 22.8 16.3 76 2.7 CALM 0 0 0 0 1013.6 1013.0 0.0
03/11:00pm 21.2 23.4 16.6 75 2.8 CALM 0 0 0 0 1013.6 1013.0 0.0
03/10:30pm 21.8 23.4 14.9 65 4.1 CALM 0 0 0 0 1013.4 1012.8 0.0
03/10:00pm 22.8 23.6 15.9 65 4.2 N 6 6 3 3 1013.2 1012.6 0.0
03/09:30pm 23.1 24.4 16.2 65 4.2 N 4 6 2 3 1013.1 1012.5 0.0
03/09:00pm 24.4 25.4 16.4 61 4.9 N 6 6 3 3 1012.9 1012.3 0.0
03/08:30pm 26.3 25.9 12.4 42 8.1 N 6 7 3 4 1012.7 1012.2 0.0
03/08:00pm 28.2 27.1 9.9 32 10.3 N 6 9 3 5 1012.4 1011.9 0.0
03/07:30pm 29.3 27.9 9.4 29 11.1 NNE 7 9 4 5 1012.2 1011.7 0.0
03/07:00pm 29.6 26.8 8.6 27 11.6 NE 13 19 7 10 1012.0 1011.5 0.0
03/06:30pm 30.7 29.6 8.4 25 12.4 SW 4 11 2 6 1011.9 1011.4 0.0
03/06:00pm 30.3 27.8 8.1 25 12.2 E 11 19 6 10 1011.8 1011.3 0.0
03/05:30pm 30.1 28.1 8.5 26 12.0 ENE 9 17 5 9 1011.9 1011.4 0.0
03/05:00pm 30.5 28.4 8.3 25 12.3 E 9 15 5 8 1012.1 1011.6 0.0
03/04:30pm 30.0 27.2 8.4 26 11.9 NE 13 19 7 10 1012.2 1011.7 0.0
03/04:00pm 30.3 26.8 8.7 26 12.0 ENE 17 26 9 14 1012.5 1012.0 0.0
03/03:30pm 30.2 27.5 9.1 27 11.8 E 13 22 7 12 1012.9 1012.3 0.0
03/03:00pm 29.8 25.5 7.1 24 12.3 ESE 19 26 10 14 1013.2 1012.6 0.0
03/02:30pm 30.1 25.7 9.1 27 11.7 E 22 35 12 19 1013.6 1013.0 0.0
03/02:00pm 29.5 25.6 9.6 29 11.2 E 20 32 11 17 1013.9 1013.3 0.0
03/01:30pm 29.4 25.6 9.0 28 11.4 E 19 32 10 17 1014.2 1013.6 0.0
03/01:00pm 29.2 26.0 9.9 30 10.9 NE 17 24 9 13 1014.5 1013.9 0.0
03/12:30pm 28.9 27.0 11.9 35 9.9 NE 13 22 7 12 1014.9 1014.4 0.0
03/12:00pm 28.0 25.8 10.7 34 9.8 ENE 13 24 7 13 1015.2 1014.7 0.0
03/11:30am 28.2 26.3 11.7 36 9.5 ENE 13 22 7 12 1015.3 1014.8 0.0
03/11:00am 27.7 25.1 9.5 32 10.1 ENE 13 22 7 12 1015.5 1015.0 0.0
03/10:30am 27.1 24.9 10.8 36 9.2 NE 13 24 7 13 1015.5 1015.0 0.0
03/10:00am 26.6 25.5 14.4 47 7.3 NE 13 20 7 11 1015.6 1015.1 0.0
03/09:30am 25.4 23.8 13.9 49 6.8 NE 15 19 8 10 1015.6 1015.1 0.0
03/09:00am 24.7 23.3 14.5 53 6.1 ENE 15 20 8 11 1015.6 1015.1 7.0
03/08:30am 23.6 22.7 14.9 58 5.2 NE 13 15 7 8 1015.4 1014.9 7.0
03/08:00am 22.5 23.0 15.6 65 4.1 ENE 7 13 4 7 1015.0 1014.5 7.0
03/07:30am 20.8 21.2 15.4 71 3.2 ENE 7 9 4 5 1014.5 1013.9 7.0
03/07:00am 18.4 18.1 14.3 77 2.4 ENE 9 11 5 6 1014.1 1013.5 7.0
03/06:30am 16.9 15.4 13.2 79 2.1 ENE 13 17 7 9 1013.8 1013.2 7.0
03/06:00am 17.3 15.8 13.0 76 2.4 ENE 13 15 7 8 1013.4 1012.8 7.0
03/05:30am 17.3 15.8 13.2 77 2.3 NE 13 13 7 7 1013.1 1012.5 7.0
03/05:00am 17.9 16.1 13.4 75 2.6 NE 15 15 8 8 1012.7 1012.2 7.0
03/04:30am 18.3 16.6 13.6 74 2.7 NE 15 15 8 8 1012.9 1012.3 7.0
03/04:00am 18.2 17.0 14.1 77 2.4 NE 13 15 7 8 1012.7 1012.2 7.0
03/03:30am 18.9 17.2 13.7 72 3.0 NE 15 17 8 9 1012.5 1012.0 7.0
03/03:00am 19.1 18.0 14.4 74 2.7 NE 13 15 7 8 1012.6 1012.1 7.0
03/02:30am 19.2 19.1 16.1 82 1.9 NE 11 13 6 7 1012.7 1012.2 7.0
03/02:00am 20.1 19.7 16.3 79 2.3 E 13 15 7 8 1013.0 1012.4 7.0
03/01:30am 20.5 20.0 16.9 80 2.2 E 15 17 8 9 1013.1 1012.5 7.0
03/01:00am 20.2 20.0 16.8 81 2.1 E 13 17 7 9 1013.2 1012.6 7.0
03/12:30am 20.1 20.4 16.9 82 1.9 E 11 13 6 7 1013.3 1012.7 7.0
03/12:00am 20.5 20.7 16.7 79 2.3 E 11 13 6 7 1013.2 1012.6 7.0
 
Date/Time
EDT
Temp
°C
App
Temp
°C
Dew
Point
°C
Rel
Hum
%
Delta-T
°C
Wind Press
QNH
hPa
Press
MSL
hPa
Rain since
9am
mm
Dir  Spd
km/h
Gust
km/h
Spd
kts
Gust
kts
02/11:30pm 21.0 21.9 16.6 76 2.7 SE 7 9 4 5 1013.2 1012.6 7.0
02/11:00pm 21.5 24.4 18.3 82 2.0 CALM 0 0 0 0 1013.1 1012.5 7.0
02/10:30pm 22.4 23.1 16.2 68 3.8 NNW 7 9 4 5 1012.7 1012.2 7.0
02/10:00pm 22.0 21.1 15.8 68 3.7 NNW 15 22 8 12 1012.6 1012.1 7.0
02/09:30pm 21.3 19.0 15.6 70 3.4 N 22 28 12 15 1012.5 1012.0 7.0
02/09:00pm 21.8 19.4 13.9 60 4.6 WSW 19 46 10 25 1012.9 1012.3 5.2
02/08:53pm 22.1 18.6 13.5 58 5.0 S 24 46 13 25 1012.4 1011.9 4.0
02/08:30pm 26.4 23.3 12.1 41 8.3 SSE 20 32 11 17 1011.9 1011.4 0.0

Other formats

Comma delimited format used in spreadsheet applications
http://www.bom.gov.au/fwo/IDN60801/IDN60801.95695.axf

JavaScript Object Notation format (JSON) in row-major order
http://www.bom.gov.au/fwo/IDN60801/IDN60801.95695.json

Data quality

Most of these data are generated automatically and are frequently updated. Quality checks on data are not normally performed. It is possible for incorrect values to appear. Refer to information at About Latest Weather Observations and please check the disclaimer before using these data.